createdAt,value
2023-05-01T00:00:50.102Z,0
2023-05-01T00:02:04.000Z,0
2023-05-01T00:03:22.494Z,0
2023-05-01T00:04:37.963Z,0
2023-05-01T00:05:51.000Z,0
2023-05-01T00:07:07.000Z,0
2023-05-01T00:08:23.000Z,0
2023-05-01T00:09:41.771Z,0
2023-05-01T00:10:57.966Z,0
2023-05-01T00:12:13.907Z,0
2023-05-01T00:13:28.000Z,0
2023-05-01T00:14:44.000Z,0
2023-05-01T00:16:02.739Z,0
2023-05-01T00:17:16.000Z,0
2023-05-01T00:18:34.886Z,0
2023-05-01T00:19:49.000Z,0
2023-05-01T00:21:05.000Z,0
2023-05-01T00:22:20.000Z,0
2023-05-01T00:23:38.930Z,0
2023-05-01T00:24:53.000Z,0
2023-05-01T00:26:09.000Z,0
2023-05-01T00:27:27.524Z,0
2023-05-01T00:28:41.000Z,0
2023-05-01T00:29:59.910Z,0
2023-05-01T00:31:15.133Z,0
2023-05-01T00:32:28.000Z,0
2023-05-01T00:33:45.574Z,0
2023-05-01T00:34:58.000Z,0
2023-05-01T00:36:16.979Z,0
2023-05-01T00:37:33.162Z,0
2023-05-01T00:38:47.000Z,0
2023-05-01T00:40:05.562Z,0
2023-05-01T00:41:19.000Z,0
2023-05-01T00:42:37.956Z,0
2023-05-01T00:43:52.000Z,0
2023-05-01T00:45:08.000Z,0
2023-05-01T00:46:24.000Z,0
2023-05-01T00:47:40.000Z,0
2023-05-01T00:48:58.933Z,0
2023-05-01T00:50:13.000Z,0
2023-05-01T00:51:28.000Z,0
2023-05-01T00:52:44.000Z,0
2023-05-01T00:54:00.000Z,0
2023-05-01T00:55:18.926Z,0
2023-05-01T00:56:35.137Z,0
2023-05-01T00:57:49.000Z,0
2023-05-01T00:59:05.000Z,0
2023-05-01T01:00:22.488Z,0
2023-05-01T01:01:37.941Z,0
2023-05-01T01:02:52.000Z,0
2023-05-01T01:04:10.336Z,0
2023-05-01T01:05:24.000Z,0
2023-05-01T01:06:40.000Z,0
2023-05-01T01:07:58.923Z,0
2023-05-01T01:09:13.000Z,0
2023-05-01T01:10:29.000Z,0
2023-05-01T01:11:47.508Z,0
2023-05-01T01:13:01.000Z,0
2023-05-01T01:14:19.909Z,0
2023-05-01T01:15:35.852Z,0
2023-05-01T01:16:52.298Z,0
2023-05-01T01:18:07.509Z,0
2023-05-01T01:19:23.713Z,0
2023-05-01T01:20:39.895Z,0
2023-05-01T01:21:55.847Z,0
2023-05-01T01:23:10.000Z,0
2023-05-01T01:24:28.486Z,0
2023-05-01T01:25:42.000Z,0
2023-05-01T01:26:59.919Z,0
2023-05-01T01:28:13.000Z,0
2023-05-01T01:29:28.000Z,0
2023-05-01T01:30:45.542Z,0
2023-05-01T01:31:58.000Z,0
2023-05-01T01:33:15.984Z,0
2023-05-01T01:34:30.000Z,0
2023-05-01T01:35:46.000Z,0
2023-05-01T01:37:02.000Z,0
2023-05-01T01:38:18.000Z,0
2023-05-01T01:39:34.000Z,0
2023-05-01T01:40:51.000Z,0
2023-05-01T01:42:04.000Z,0
2023-05-01T01:42:09.355Z,0
2023-05-01T01:43:23.000Z,0
2023-05-01T01:44:41.751Z,0
2023-05-01T01:45:57.942Z,0
2023-05-01T01:47:14.154Z,0
2023-05-01T01:49:45.559Z,0
2023-05-01T01:50:59.000Z,0
2023-05-01T01:52:17.935Z,0
2023-05-01T01:53:32.000Z,0
2023-05-01T01:54:42.000Z,0
2023-05-01T01:54:50.079Z,0
2023-05-01T01:56:04.000Z,0
2023-05-01T01:57:20.000Z,0
2023-05-01T01:58:35.000Z,0
2023-05-01T01:59:51.000Z,0
2023-05-01T02:02:23.592Z,0
2023-05-01T02:03:39.534Z,0
2023-05-01T02:04:55.730Z,0
2023-05-01T02:06:10.000Z,0
2023-05-01T02:07:26.000Z,0
2023-05-01T02:08:44.570Z,0
2023-05-01T02:10:00.760Z,0
2023-05-01T02:11:14.000Z,0
2023-05-01T02:12:31.000Z,0
2023-05-01T02:13:47.000Z,0
2023-05-01T02:15:03.000Z,0
2023-05-01T02:16:19.000Z,0
2023-05-01T02:17:35.000Z,0
2023-05-01T02:18:51.000Z,0
2023-05-01T02:20:09.352Z,0
2023-05-01T02:21:23.000Z,0
2023-05-01T02:22:39.000Z,0
2023-05-01T02:23:55.000Z,0
2023-05-01T02:25:14.126Z,0
2023-05-01T02:26:30.074Z,0
2023-05-01T02:27:45.563Z,0
2023-05-01T02:28:58.000Z,0
2023-05-01T02:30:13.000Z,0
2023-05-01T02:31:29.000Z,0
2023-05-01T02:32:47.391Z,0
2023-05-01T02:34:03.575Z,0
2023-05-01T02:35:17.000Z,0
2023-05-01T02:36:33.000Z,0
2023-05-01T02:37:50.000Z,0
2023-05-01T02:39:06.000Z,0
2023-05-01T02:40:19.000Z,0
2023-05-01T02:40:22.000Z,0
2023-05-01T02:41:38.000Z,0
2023-05-01T02:42:56.961Z,0
2023-05-01T02:44:11.000Z,0
2023-05-01T02:45:27.000Z,0
2023-05-01T02:47:58.000Z,0
2023-05-01T02:49:14.000Z,0
2023-05-01T02:50:32.896Z,0
2023-05-01T02:51:47.000Z,0
2023-05-01T02:53:05.287Z,0
2023-05-01T02:54:21.725Z,0
2023-05-01T02:55:35.000Z,0
2023-05-01T02:56:51.000Z,0
2023-05-01T02:58:01.000Z,0
2023-05-01T02:58:06.000Z,0
2023-05-01T02:59:21.000Z,0
2023-05-01T03:00:38.791Z,0
2023-05-01T03:01:52.000Z,0
2023-05-01T03:03:09.000Z,0
2023-05-01T03:04:22.000Z,0
2023-05-01T03:05:43.330Z,0
2023-05-01T03:06:57.000Z,0
2023-05-01T03:08:13.000Z,0
2023-05-01T03:09:32.169Z,0
2023-05-01T03:12:02.000Z,0
2023-05-01T03:13:20.755Z,0
2023-05-01T03:14:34.000Z,0
2023-05-01T03:15:51.000Z,0
2023-05-01T03:17:06.000Z,0
2023-05-01T03:18:22.000Z,0
2023-05-01T03:19:38.000Z,0
2023-05-01T03:20:56.957Z,0
2023-05-01T03:22:11.000Z,0
2023-05-01T03:23:27.000Z,0
2023-05-01T03:24:45.529Z,0
2023-05-01T03:25:58.000Z,0
2023-05-01T03:27:13.000Z,0
2023-05-01T03:28:31.200Z,0
2023-05-01T03:29:44.000Z,0
2023-05-01T03:31:00.000Z,0
2023-05-01T03:32:16.000Z,0
2023-05-01T03:33:32.000Z,0
2023-05-01T03:34:49.000Z,0
2023-05-01T03:36:07.383Z,0
2023-05-01T03:37:21.000Z,0
2023-05-01T03:38:39.769Z,0
2023-05-01T03:39:53.000Z,0
2023-05-01T03:41:10.000Z,0
2023-05-01T03:42:26.000Z,0
2023-05-01T03:43:42.000Z,0
2023-05-01T03:45:00.746Z,0
2023-05-01T03:46:15.967Z,0
2023-05-01T03:47:30.000Z,0
2023-05-01T03:48:48.111Z,0
2023-05-01T03:50:02.000Z,0
2023-05-01T03:51:18.000Z,0
2023-05-01T03:52:36.697Z,0
2023-05-01T03:53:51.000Z,0
2023-05-01T03:55:06.000Z,0
2023-05-01T03:56:21.000Z,0
2023-05-01T03:57:36.000Z,0
2023-05-01T03:58:54.021Z,0
2023-05-01T04:00:09.228Z,0
2023-05-01T04:01:24.440Z,0
2023-05-01T04:02:40.641Z,0
2023-05-01T04:03:54.000Z,0
2023-05-01T04:05:11.000Z,0
2023-05-01T04:06:29.237Z,0
2023-05-01T04:07:43.000Z,0
2023-05-01T04:08:59.000Z,0
2023-05-01T04:10:15.000Z,5
2023-05-01T04:11:31.000Z,5
2023-05-01T04:12:48.000Z,5
2023-05-01T04:14:06.411Z,5
2023-05-01T04:15:20.000Z,5
2023-05-01T04:16:36.000Z,5
2023-05-01T04:17:51.000Z,5
2023-05-01T04:19:08.000Z,5
2023-05-01T04:20:24.000Z,11
2023-05-01T04:21:42.598Z,11
2023-05-01T04:22:56.000Z,11
2023-05-01T04:24:12.000Z,11
2023-05-01T04:25:31.182Z,16
2023-05-01T04:26:44.000Z,16
2023-05-01T04:27:59.000Z,16
2023-05-01T04:29:16.840Z,16
2023-05-01T04:30:30.000Z,16
2023-05-01T04:31:47.285Z,22
2023-05-01T04:33:00.000Z,22
2023-05-01T04:34:18.679Z,22
2023-05-01T04:35:32.000Z,22
2023-05-01T04:36:51.069Z,22
2023-05-01T04:38:05.000Z,28
2023-05-01T04:39:21.000Z,28
2023-05-01T04:40:37.000Z,28
2023-05-01T04:41:55.853Z,28
2023-05-01T04:43:10.000Z,33
2023-05-01T04:44:26.000Z,33
2023-05-01T04:45:42.000Z,33
2023-05-01T04:46:58.000Z,39
2023-05-01T04:48:14.000Z,39
2023-05-01T04:49:30.000Z,39
2023-05-01T04:50:46.000Z,45
2023-05-01T04:52:04.469Z,45
2023-05-01T04:53:20.648Z,45
2023-05-01T04:54:36.831Z,45
2023-05-01T04:55:51.000Z,45
2023-05-01T04:57:09.225Z,50
2023-05-01T04:58:22.000Z,50
2023-05-01T04:59:37.000Z,50
2023-05-01T05:00:52.000Z,50
2023-05-01T05:02:08.000Z,50
2023-05-01T05:03:26.037Z,50
2023-05-01T05:04:42.478Z,56
2023-05-01T05:05:56.000Z,56
2023-05-01T05:07:12.000Z,61
2023-05-01T05:08:29.000Z,67
2023-05-01T05:09:45.000Z,67
2023-05-01T05:11:01.000Z,73
2023-05-01T05:12:19.653Z,78
2023-05-01T05:13:33.000Z,78
2023-05-01T05:14:52.043Z,84
2023-05-01T05:16:08.255Z,90
2023-05-01T05:17:24.450Z,90
2023-05-01T05:18:37.000Z,90
2023-05-01T05:19:55.849Z,90
2023-05-01T05:21:12.041Z,90
2023-05-01T05:22:28.254Z,90
2023-05-01T05:23:42.000Z,90
2023-05-01T05:25:00.385Z,95
2023-05-01T05:26:14.000Z,101
2023-05-01T05:27:30.000Z,101
2023-05-01T05:28:45.000Z,106
2023-05-01T05:30:02.497Z,112
2023-05-01T05:31:17.708Z,112
2023-05-01T05:32:31.000Z,118
2023-05-01T05:33:48.000Z,118
2023-05-01T05:35:04.000Z,118
2023-05-01T05:36:20.000Z,118
2023-05-01T05:37:38.685Z,118
2023-05-01T05:38:52.000Z,112
2023-05-01T05:40:11.075Z,112
2023-05-01T05:41:25.000Z,112
2023-05-01T05:42:41.000Z,112
2023-05-01T05:43:59.406Z,112
2023-05-01T05:45:13.000Z,112
2023-05-01T05:46:32.059Z,118
2023-05-01T05:47:45.000Z,118
2023-05-01T05:49:03.207Z,118
2023-05-01T05:50:19.648Z,118
2023-05-01T05:51:35.840Z,118
2023-05-01T05:52:50.000Z,118
2023-05-01T05:54:07.990Z,118
2023-05-01T05:55:22.000Z,123
2023-05-01T05:56:37.000Z,123
2023-05-01T05:57:54.887Z,118
2023-05-01T05:59:11.068Z,118
2023-05-01T06:00:27.013Z,118
2023-05-01T06:01:41.000Z,118
2023-05-01T06:02:57.000Z,112
2023-05-01T06:04:13.000Z,112
2023-05-01T06:05:30.000Z,112
2023-05-01T06:06:46.000Z,118
2023-05-01T06:08:04.188Z,118
2023-05-01T06:09:18.000Z,129
2023-05-01T06:10:34.000Z,140
2023-05-01T06:11:50.000Z,151
2023-05-01T06:13:07.000Z,163
2023-05-01T06:14:22.000Z,174
2023-05-01T06:15:40.628Z,180
2023-05-01T06:16:56.820Z,185
2023-05-01T06:18:10.000Z,191
2023-05-01T06:19:27.000Z,191
2023-05-01T06:20:45.404Z,191
2023-05-01T06:21:59.000Z,191
2023-05-01T06:23:16.842Z,191
2023-05-01T06:24:32.041Z,191
2023-05-01T06:25:47.269Z,196
2023-05-01T06:27:00.000Z,196
2023-05-01T06:28:15.000Z,191
2023-05-01T06:29:30.000Z,185
2023-05-01T06:30:46.000Z,180
2023-05-01T06:32:01.000Z,168
2023-05-01T06:33:17.000Z,163
2023-05-01T06:34:35.728Z,163
2023-05-01T06:35:51.933Z,168
2023-05-01T06:37:06.000Z,174
2023-05-01T06:38:22.000Z,180
2023-05-01T06:39:38.000Z,185
2023-05-01T06:40:56.721Z,180
2023-05-01T06:42:12.663Z,168
2023-05-01T06:43:27.000Z,157
2023-05-01T06:44:45.055Z,151
2023-05-01T06:45:59.000Z,151
2023-05-01T06:47:15.000Z,146
2023-05-01T06:48:32.914Z,140
2023-05-01T06:49:47.000Z,135
2023-05-01T06:51:05.293Z,135
2023-05-01T06:52:19.000Z,129
2023-05-01T06:53:37.688Z,129
2023-05-01T06:54:51.000Z,129
2023-05-01T06:56:08.000Z,129
2023-05-01T06:57:23.000Z,129
2023-05-01T06:58:40.520Z,135
2023-05-01T06:59:54.000Z,135
2023-05-01T07:01:12.660Z,140
2023-05-01T07:02:29.104Z,151
2023-05-01T07:03:45.052Z,157
2023-05-01T07:05:01.509Z,163
2023-05-01T07:06:15.000Z,174
2023-05-01T07:07:31.000Z,185
2023-05-01T07:08:50.089Z,191
2023-05-01T07:10:04.000Z,196
2023-05-01T07:11:20.000Z,196
2023-05-01T07:12:36.000Z,202
2023-05-01T07:13:54.875Z,213
2023-05-01T07:15:10.078Z,219
2023-05-01T07:16:26.276Z,225
2023-05-01T07:17:40.000Z,241
2023-05-01T07:18:56.000Z,253
2023-05-01T07:20:12.000Z,258
2023-05-01T07:21:29.000Z,258
2023-05-01T07:22:45.000Z,264
2023-05-01T07:24:02.231Z,275
2023-05-01T07:25:15.000Z,281
2023-05-01T07:26:32.914Z,286
2023-05-01T07:27:47.876Z,286
2023-05-01T07:29:03.345Z,281
2023-05-01T07:30:16.000Z,281
2023-05-01T07:31:34.752Z,281
2023-05-01T07:32:48.000Z,281
2023-05-01T07:34:07.152Z,281
2023-05-01T07:35:21.000Z,286
2023-05-01T07:36:39.548Z,286
2023-05-01T07:37:53.000Z,286
2023-05-01T07:39:11.682Z,286
2023-05-01T07:40:26.000Z,286
2023-05-01T07:41:42.000Z,286
2023-05-01T07:42:58.000Z,286
2023-05-01T07:44:16.723Z,286
2023-05-01T07:45:30.000Z,298
2023-05-01T07:46:47.875Z,309
2023-05-01T07:48:04.323Z,326
2023-05-01T07:49:20.511Z,337
2023-05-01T07:50:36.709Z,348
2023-05-01T07:51:50.000Z,354
2023-05-01T07:53:09.108Z,360
2023-05-01T07:54:25.049Z,371
2023-05-01T07:55:38.000Z,371
2023-05-01T07:56:53.000Z,365
2023-05-01T07:58:09.000Z,354
2023-05-01T07:59:25.000Z,348
2023-05-01T08:00:40.000Z,354
2023-05-01T08:01:58.314Z,354
2023-05-01T08:03:14.751Z,354
2023-05-01T08:04:30.956Z,354
2023-05-01T08:05:45.000Z,360
2023-05-01T08:07:03.358Z,371
2023-05-01T08:08:19.294Z,382
2023-05-01T08:09:35.737Z,382
2023-05-01T08:10:49.000Z,376
2023-05-01T08:12:06.000Z,371
2023-05-01T08:13:22.000Z,360
2023-05-01T08:14:38.000Z,348
2023-05-01T08:15:54.000Z,331
2023-05-01T08:17:09.000Z,320
2023-05-01T08:18:28.120Z,309
2023-05-01T08:19:42.000Z,309
2023-05-01T08:21:00.269Z,315
2023-05-01T08:22:14.000Z,320
2023-05-01T08:23:30.000Z,337
2023-05-01T08:24:49.105Z,343
2023-05-01T08:26:02.000Z,343
2023-05-01T08:27:17.000Z,337
2023-05-01T08:28:33.000Z,337
2023-05-01T08:29:48.000Z,331
2023-05-01T08:31:06.169Z,326
2023-05-01T08:32:22.119Z,331
2023-05-01T08:33:36.000Z,337
2023-05-01T08:34:54.510Z,343
2023-05-01T08:36:08.000Z,348
2023-05-01T08:37:25.000Z,348
2023-05-01T08:38:41.000Z,354
2023-05-01T08:39:59.543Z,360
2023-05-01T08:41:13.000Z,360
2023-05-01T08:42:29.000Z,354
2023-05-01T08:43:46.000Z,343
2023-05-01T08:45:04.315Z,343
2023-05-01T08:46:18.000Z,337
2023-05-01T08:47:35.480Z,331
2023-05-01T08:48:49.000Z,326
2023-05-01T08:50:06.000Z,320
2023-05-01T08:51:22.000Z,360
2023-05-01T08:52:33.000Z,371
2023-05-01T08:52:38.000Z,382
2023-05-01T08:53:54.000Z,388
2023-05-01T08:55:12.642Z,382
2023-05-01T08:56:27.862Z,371
2023-05-01T08:57:41.000Z,376
2023-05-01T09:00:12.000Z,365
2023-05-01T09:01:27.000Z,365
2023-05-01T09:02:46.142Z,365
2023-05-01T09:04:00.000Z,371
2023-05-01T09:05:18.526Z,388
2023-05-01T09:06:32.000Z,405
2023-05-01T09:07:48.000Z,410
2023-05-01T09:09:05.000Z,410
2023-05-01T09:10:23.294Z,416
2023-05-01T09:11:37.000Z,427
2023-05-01T09:12:53.000Z,433
2023-05-01T09:14:09.000Z,433
2023-05-01T09:15:25.000Z,427
2023-05-01T09:16:42.000Z,427
2023-05-01T09:17:59.491Z,416
2023-05-01T09:19:15.663Z,405
2023-05-01T09:20:29.000Z,388
2023-05-01T09:21:45.000Z,376
2023-05-01T09:23:04.257Z,365
2023-05-01T09:24:18.000Z,360
2023-05-01T09:25:36.641Z,354
2023-05-01T09:26:49.000Z,348
2023-05-01T09:28:04.000Z,343
2023-05-01T09:29:21.000Z,337
2023-05-01T09:30:37.000Z,331
2023-05-01T09:31:53.000Z,337
2023-05-01T09:33:11.854Z,343
2023-05-01T09:34:25.000Z,365
2023-05-01T09:35:42.000Z,382
2023-05-01T09:36:58.000Z,393
2023-05-01T09:38:16.378Z,393
2023-05-01T09:39:30.000Z,410
2023-05-01T09:40:49.010Z,388
2023-05-01T09:42:03.000Z,393
2023-05-01T09:43:19.000Z,393
2023-05-01T09:44:34.000Z,393
2023-05-01T09:45:52.557Z,405
2023-05-01T09:47:06.000Z,416
2023-05-01T09:48:25.194Z,433
2023-05-01T09:49:39.000Z,427
2023-05-01T09:50:57.589Z,427
2023-05-01T09:52:11.000Z,416
2023-05-01T09:53:29.005Z,405
2023-05-01T09:54:42.000Z,388
2023-05-01T09:55:57.000Z,382
2023-05-01T09:57:12.000Z,388
2023-05-01T09:58:30.826Z,405
2023-05-01T09:59:44.000Z,433
2023-05-01T10:01:03.227Z,455
2023-05-01T10:02:17.000Z,461
2023-05-01T10:03:35.355Z,466
2023-05-01T10:04:49.000Z,455
2023-05-01T10:06:05.000Z,427
2023-05-01T10:07:22.000Z,410
2023-05-01T10:08:40.376Z,405
2023-05-01T10:09:54.000Z,410
2023-05-01T10:11:12.787Z,421
2023-05-01T10:12:28.710Z,438
2023-05-01T10:13:44.170Z,461
2023-05-01T10:15:00.114Z,461
2023-05-01T10:16:16.555Z,455
2023-05-01T10:17:30.000Z,450
2023-05-01T10:18:48.695Z,444
2023-05-01T10:20:03.000Z,450
2023-05-01T10:21:19.000Z,466
2023-05-01T10:22:34.000Z,489
2023-05-01T10:23:49.000Z,511
2023-05-01T10:25:04.000Z,528
2023-05-01T10:26:22.203Z,534
2023-05-01T10:27:36.000Z,534
2023-05-01T10:28:52.000Z,528
2023-05-01T10:30:08.000Z,523
2023-05-01T10:31:24.000Z,523
2023-05-01T10:32:41.000Z,517
2023-05-01T10:33:59.352Z,517
2023-05-01T10:35:13.000Z,511
2023-05-01T10:36:29.000Z,506
2023-05-01T10:37:45.000Z,500
2023-05-01T10:39:02.000Z,500
2023-05-01T10:40:18.000Z,495
2023-05-01T10:41:34.000Z,500
2023-05-01T10:42:49.000Z,506
2023-05-01T10:44:05.000Z,495
2023-05-01T10:45:21.000Z,495
2023-05-01T10:46:38.000Z,489
2023-05-01T10:47:54.000Z,478
2023-05-01T10:49:12.445Z,472
2023-05-01T10:50:26.000Z,455
2023-05-01T10:51:41.000Z,433
2023-05-01T10:52:57.000Z,410
2023-05-01T10:54:12.000Z,393
2023-05-01T10:55:27.000Z,376
2023-05-01T10:56:45.693Z,360
2023-05-01T10:58:00.000Z,337
2023-05-01T10:59:18.336Z,326
2023-05-01T11:00:32.000Z,326
2023-05-01T11:01:50.715Z,326
2023-05-01T11:03:06.914Z,331
2023-05-01T11:04:20.000Z,331
2023-05-01T11:05:37.000Z,331
2023-05-01T11:06:53.000Z,337
2023-05-01T11:08:09.000Z,337
2023-05-01T11:09:25.000Z,337
2023-05-01T11:10:41.000Z,343
2023-05-01T11:11:59.034Z,348
2023-05-01T11:13:13.000Z,354
2023-05-01T11:14:29.000Z,360
2023-05-01T11:15:45.000Z,365
2023-05-01T11:17:01.000Z,376
2023-05-01T11:18:18.000Z,393
2023-05-01T11:19:36.443Z,405
2023-05-01T11:20:49.000Z,410
2023-05-01T11:22:04.000Z,410
2023-05-01T11:23:20.000Z,416
2023-05-01T11:24:37.000Z,410
2023-05-01T11:25:52.000Z,405
2023-05-01T11:27:09.701Z,421
2023-05-01T11:28:23.000Z,455
2023-05-01T11:29:39.000Z,461
2023-05-01T11:30:56.000Z,466
2023-05-01T11:32:12.000Z,466
2023-05-01T11:33:28.000Z,455
2023-05-01T11:34:44.000Z,444
2023-05-01T11:36:00.000Z,444
2023-05-01T11:37:19.239Z,455
2023-05-01T11:38:35.435Z,450
2023-05-01T11:39:49.000Z,438
2023-05-01T11:41:07.826Z,438
2023-05-01T11:42:21.000Z,444
2023-05-01T11:43:37.000Z,450
2023-05-01T11:44:53.000Z,466
2023-05-01T11:46:09.000Z,483
2023-05-01T11:47:27.805Z,495
2023-05-01T11:48:41.000Z,495
2023-05-01T11:49:59.944Z,495
2023-05-01T11:51:16.386Z,500
2023-05-01T11:52:29.000Z,511
2023-05-01T11:53:46.812Z,528
2023-05-01T11:54:59.000Z,540
2023-05-01T11:56:15.000Z,534
2023-05-01T11:57:33.441Z,517
2023-05-01T11:58:47.000Z,495
2023-05-01T12:00:03.000Z,472
2023-05-01T12:01:19.000Z,461
2023-05-01T12:02:36.000Z,450
2023-05-01T12:03:52.000Z,444
2023-05-01T12:05:08.000Z,438
2023-05-01T12:06:26.797Z,427
2023-05-01T12:07:42.742Z,416
2023-05-01T12:08:57.000Z,393
2023-05-01T12:10:13.000Z,365
2023-05-01T12:11:29.000Z,343
2023-05-01T12:12:44.000Z,331
2023-05-01T12:14:00.000Z,326
2023-05-01T12:15:17.942Z,331
2023-05-01T12:16:32.000Z,331
2023-05-01T12:17:50.575Z,354
2023-05-01T12:19:04.612Z,376
2023-05-01T12:20:22.717Z,388
2023-05-01T12:21:36.000Z,410
2023-05-01T12:22:51.000Z,416
2023-05-01T12:24:07.000Z,427
2023-05-01T12:25:22.000Z,433
2023-05-01T12:26:39.770Z,427
2023-05-01T12:27:55.964Z,410
2023-05-01T12:29:10.000Z,393
2023-05-01T12:30:28.612Z,382
2023-05-01T12:31:44.796Z,376
2023-05-01T12:32:58.000Z,382
2023-05-01T12:34:15.000Z,393
2023-05-01T12:35:31.000Z,410
2023-05-01T12:36:47.000Z,427
2023-05-01T12:38:03.000Z,444
2023-05-01T12:39:19.000Z,450
2023-05-01T12:40:38.153Z,450
2023-05-01T12:41:52.000Z,455
2023-05-01T12:43:07.000Z,455
2023-05-01T12:44:23.000Z,466
2023-05-01T12:45:41.933Z,472
2023-05-01T12:46:55.000Z,472
2023-05-01T12:48:12.000Z,466
2023-05-01T12:49:30.521Z,466
2023-05-01T12:50:46.466Z,472
2023-05-01T12:51:59.000Z,478
2023-05-01T12:53:14.000Z,489
2023-05-01T12:54:31.000Z,483
2023-05-01T12:55:46.000Z,472
2023-05-01T12:57:01.000Z,450
2023-05-01T12:58:19.963Z,433
2023-05-01T12:59:33.000Z,433
2023-05-01T13:00:52.347Z,433
2023-05-01T13:02:06.000Z,427
2023-05-01T13:03:24.736Z,421
2023-05-01T13:04:38.000Z,421
2023-05-01T13:05:56.876Z,427
2023-05-01T13:07:11.000Z,433
2023-05-01T13:08:29.515Z,438
2023-05-01T13:09:43.000Z,444
2023-05-01T13:11:01.900Z,444
2023-05-01T13:12:15.000Z,444
2023-05-01T13:13:31.000Z,461
2023-05-01T13:14:47.000Z,483
2023-05-01T13:16:03.000Z,500
2023-05-01T13:17:19.000Z,495
2023-05-01T13:18:35.000Z,472
2023-05-01T13:19:52.000Z,450
2023-05-01T13:21:10.216Z,421
2023-05-01T13:22:25.688Z,399
2023-05-01T13:23:38.000Z,382
2023-05-01T13:24:51.000Z,365
2023-05-01T13:24:56.840Z,371
2023-05-01T13:26:13.279Z,354
2023-05-01T13:27:27.000Z,348
2023-05-01T13:28:43.000Z,348
2023-05-01T13:29:59.000Z,365
2023-05-01T13:32:32.000Z,360
2023-05-01T13:33:48.000Z,348
2023-05-01T13:35:04.000Z,331
2023-05-01T13:36:22.583Z,309
2023-05-01T13:37:36.000Z,275
2023-05-01T13:38:55.215Z,253
2023-05-01T13:40:08.000Z,230
2023-05-01T13:41:24.000Z,213
2023-05-01T13:42:40.000Z,196
2023-05-01T13:43:58.762Z,180
2023-05-01T13:45:13.000Z,163
2023-05-01T13:46:29.000Z,157
2023-05-01T13:47:47.597Z,157
2023-05-01T13:49:02.563Z,151
2023-05-01T13:50:15.000Z,151
2023-05-01T13:51:33.244Z,151
2023-05-01T13:52:46.000Z,151
2023-05-01T13:54:01.000Z,146
2023-05-01T13:55:16.000Z,146
2023-05-01T13:56:32.000Z,140
2023-05-01T13:57:49.000Z,140
2023-05-01T13:59:07.465Z,140
2023-05-01T14:00:21.000Z,135
2023-05-01T14:01:37.000Z,135
2023-05-01T14:02:53.000Z,140
2023-05-01T14:04:10.000Z,146
2023-05-01T14:05:26.000Z,157
2023-05-01T14:06:42.000Z,163
2023-05-01T14:07:58.000Z,157
2023-05-01T14:09:17.012Z,157
2023-05-01T14:10:31.000Z,151
2023-05-01T14:11:46.000Z,146
2023-05-01T14:13:02.000Z,146
2023-05-01T14:14:20.814Z,151
2023-05-01T14:15:34.000Z,157
2023-05-01T14:16:53.193Z,163
2023-05-01T14:18:07.000Z,168
2023-05-01T14:19:23.000Z,174
2023-05-01T14:20:38.000Z,185
2023-05-01T14:21:56.014Z,191
2023-05-01T14:23:09.000Z,208
2023-05-01T14:24:26.196Z,225
2023-05-01T14:25:40.000Z,241
2023-05-01T14:26:56.000Z,247
2023-05-01T14:28:12.000Z,241
2023-05-01T14:29:31.220Z,225
2023-05-01T14:30:45.000Z,213
2023-05-01T14:32:03.360Z,202
2023-05-01T14:33:17.000Z,202
2023-05-01T14:34:33.000Z,202
2023-05-01T14:35:49.000Z,208
2023-05-01T14:37:06.000Z,208
2023-05-01T14:38:24.328Z,208
2023-05-01T14:39:40.779Z,202
2023-05-01T14:40:53.000Z,191
2023-05-01T14:42:09.000Z,174
2023-05-01T14:43:26.000Z,168
2023-05-01T14:44:44.314Z,163
2023-05-01T14:45:58.000Z,157
2023-05-01T14:47:14.000Z,157
2023-05-01T14:48:30.000Z,157
2023-05-01T14:49:46.000Z,151
2023-05-01T14:51:01.000Z,151
2023-05-01T14:52:19.769Z,146
2023-05-01T14:53:35.715Z,140
2023-05-01T14:54:51.908Z,135
2023-05-01T14:56:06.000Z,129
2023-05-01T14:57:22.000Z,129
2023-05-01T14:58:38.000Z,123
2023-05-01T14:59:56.939Z,118
2023-05-01T15:01:10.000Z,118
2023-05-01T15:02:29.071Z,112
2023-05-01T15:03:43.000Z,106
2023-05-01T15:05:01.458Z,101
2023-05-01T15:06:15.000Z,95
2023-05-01T15:07:32.862Z,90
2023-05-01T15:08:47.000Z,84
2023-05-01T15:10:03.000Z,84
2023-05-01T15:11:21.695Z,90
2023-05-01T15:12:35.000Z,95
2023-05-01T15:13:51.000Z,112
2023-05-01T15:15:10.277Z,123
2023-05-01T15:16:25.243Z,135
2023-05-01T15:17:40.454Z,146
2023-05-01T15:18:49.000Z,196
2023-05-01T15:18:55.926Z,157
2023-05-01T15:20:05.000Z,202
2023-05-01T15:20:10.884Z,168
2023-05-01T15:21:25.000Z,174
2023-05-01T15:22:43.271Z,185
2023-05-01T15:23:57.000Z,191
2023-05-01T15:27:46.000Z,208
2023-05-01T15:29:02.000Z,213
2023-05-01T15:30:20.432Z,213
2023-05-01T15:31:34.000Z,213
2023-05-01T15:32:50.000Z,213
2023-05-01T15:34:07.000Z,202
2023-05-01T15:35:25.456Z,185
2023-05-01T15:36:38.000Z,174
2023-05-01T15:37:56.611Z,168
2023-05-01T15:39:13.052Z,168
2023-05-01T15:40:27.000Z,168
2023-05-01T15:41:43.000Z,174
2023-05-01T15:42:59.000Z,180
2023-05-01T15:44:15.000Z,180
2023-05-01T15:45:30.000Z,180
2023-05-01T15:46:46.000Z,180
2023-05-01T15:48:01.000Z,174
2023-05-01T15:49:16.000Z,174
2023-05-01T15:50:34.635Z,174
2023-05-01T15:51:51.083Z,168
2023-05-01T15:53:07.272Z,163
2023-05-01T15:54:21.000Z,157
2023-05-01T15:55:39.410Z,151
2023-05-01T15:56:53.000Z,146
2023-05-01T15:58:11.798Z,146
2023-05-01T15:59:26.000Z,140
2023-05-01T16:00:44.439Z,129
2023-05-01T16:02:00.379Z,123
2023-05-01T16:03:10.000Z,168
2023-05-01T16:03:16.825Z,118
2023-05-01T16:04:33.021Z,118
2023-05-01T16:05:47.977Z,129
2023-05-01T16:07:02.000Z,146
2023-05-01T16:08:20.363Z,157
2023-05-01T16:10:50.000Z,174
2023-05-01T16:12:06.000Z,174
2023-05-01T16:13:23.000Z,168
2023-05-01T16:14:38.000Z,163
2023-05-01T16:15:48.000Z,135
2023-05-01T16:15:55.568Z,163
2023-05-01T16:17:08.000Z,168
2023-05-01T16:18:26.248Z,168
2023-05-01T16:19:40.000Z,168
2023-05-01T16:20:58.386Z,151
2023-05-01T16:23:28.000Z,118
2023-05-01T16:24:44.000Z,106
2023-05-01T16:26:01.000Z,95
2023-05-01T16:27:17.000Z,90
2023-05-01T16:28:33.000Z,90
2023-05-01T16:29:51.015Z,84
2023-05-01T16:32:21.000Z,78
2023-05-01T16:33:39.594Z,73
2023-05-01T16:34:53.000Z,73
2023-05-01T16:36:11.983Z,67
2023-05-01T16:37:25.000Z,61
2023-05-01T16:38:44.391Z,61
2023-05-01T16:39:58.000Z,56
2023-05-01T16:41:16.507Z,50
2023-05-01T16:42:32.947Z,50
2023-05-01T16:43:46.000Z,45
2023-05-01T16:45:02.000Z,45
2023-05-01T16:46:19.324Z,45
2023-05-01T16:47:32.000Z,45
2023-05-01T16:48:47.000Z,45
2023-05-01T16:50:03.000Z,50
2023-05-01T16:51:22.387Z,56
2023-05-01T16:52:38.335Z,61
2023-05-01T16:53:54.529Z,61
2023-05-01T16:55:08.000Z,61
2023-05-01T16:56:24.000Z,61
2023-05-01T16:57:41.000Z,61
2023-05-01T16:58:57.000Z,61
2023-05-01T17:00:15.498Z,67
2023-05-01T17:01:31.691Z,78
2023-05-01T17:02:45.000Z,90
2023-05-01T17:04:02.000Z,95
2023-05-01T17:05:17.000Z,101
2023-05-01T17:06:35.735Z,101
2023-05-01T17:07:51.677Z,106
2023-05-01T17:09:07.870Z,106
2023-05-01T17:10:22.000Z,112
2023-05-01T17:11:38.000Z,118
2023-05-01T17:12:54.000Z,118
2023-05-01T17:14:09.000Z,123
2023-05-01T17:15:24.000Z,129
2023-05-01T17:16:43.330Z,129
2023-05-01T17:17:57.000Z,123
2023-05-01T17:19:13.000Z,112
2023-05-01T17:20:31.656Z,112
2023-05-01T17:21:47.850Z,112
2023-05-01T17:23:02.000Z,118
2023-05-01T17:24:18.000Z,123
2023-05-01T17:25:34.000Z,129
2023-05-01T17:26:50.000Z,123
2023-05-01T17:28:06.000Z,106
2023-05-01T17:29:23.000Z,90
2023-05-01T17:30:39.000Z,78
2023-05-01T17:31:54.000Z,73
2023-05-01T17:33:10.000Z,73
2023-05-01T17:34:26.000Z,67
2023-05-01T17:35:42.000Z,67
2023-05-01T17:36:59.000Z,61
2023-05-01T17:38:15.000Z,61
2023-05-01T17:39:31.000Z,61
2023-05-01T17:40:46.000Z,67
2023-05-01T17:42:04.253Z,67
2023-05-01T17:43:17.000Z,61
2023-05-01T17:44:32.000Z,61
2023-05-01T17:45:48.000Z,61
2023-05-01T17:47:07.071Z,56
2023-05-01T17:48:21.000Z,56
2023-05-01T17:49:39.466Z,56